Hauptseite
METAR-TAF:

METAR-TAF

Flughäfen :

Niamey, Niger

Flughafen Niamey

Breite: 13-29N, Länge: 002-10E, Höhe: 223 m

Beobachtung

Neuester Wetterbericht von vor 1 Stunde und 1 Minuten, um 17:00 UTC
Wind 2 kt aus unterschiedlichen Richtungen
Temperatur 37°C
Luftfeuchtigkeit 10%
Luftdruck 1008 hPa
Sichtweite: 6000 m

METAR: DRRN 191700Z VRB02KT 6000 NSC 37/00 Q1008 TEMPO 4500 DU

Zeit: 19:01 (18:01 UTC)

Prognose

Neuester Wetterbericht von vor 1 Stunde und 1 Minuten, um 17:00 UTC
Gültige Prognose vom 19 um 18 UTC bis 20 um 24 UTC
Wind 5 kt aus Nord
Sichtweite: 8000 m
Zeitweise
vom 19 um 18 UTC bis 19 um 22 UTC
Sichtweite: 4000 m
verbreitet Staub
Zeitweise
vom 20 um 06 UTC bis 20 um 10 UTC
Sichtweite: 3500 m
verbreitet Staub
Zeitweise
vom 20 um 17 UTC bis 20 um 21 UTC
Sichtweite: 4000 m
verbreitet Staub

TAF: DRRN 191700Z 1918/2024 35005KT 8000 NSC TEMPO 1918/1922 4000 DU TEMPO 2006/2010 3500 DU TEMPO 2017/2021 4000 DU

Wetterbeobachtungen und Prognosen von mehr als 4000 Flughäfen (METAR und TAF Bericht).

Die verfügbaren Stationen werden durch gelbe und rote Markierungen auf der Karte dargestellt.

Führen Sie die Maus auf sie, um den Namen der Station zu sehen.

Darauf klicken, um die Beobachtung von Wetterbeobachtungen und Prognosen zu sehen.

Um die Karte zu ändern : klicken Sie auf den grünen Tasten mit einem schwarzen Kreuz Zum Vergrößern, auf den grünen Button mit einem Gedankenstrich zu verkleinern, oder auf die grünen Pfeile für benachbarte Karten.


METAR-TAF: